Time;durP1;ratioP1;P1;durP2;ratioP2;P2;SDS_P1;SDS_P2;PMS_P1;PMS_P2;Temp;Humidity;BMP_temperature;BMP_pressure;BME280_temperature;BME280_humidity;BME280_pressure;Samples;Min_cycle;Max_cycle;Signal;HPM_P1;HPM_P2
2024/04/11 00:02:20;;;;;;;5.47;3.45;;;;;;;;;;5329779;26;20105;-70
2024/04/11 00:04:46;;;;;;;4.55;2.58;;;;;;;;;;5326546;26;20080;-70
2024/04/11 00:07:12;;;;;;;5.20;2.63;;;;;;;;;;5320753;26;20005;-70
2024/04/11 00:09:38;;;;;;;3.63;2.22;;;;;;;;;;5316602;26;20012;-70
2024/04/11 00:12:04;;;;;;;4.10;2.45;;;;;;;;;;5327564;26;20446;-70
2024/04/11 00:14:30;;;;;;;4.15;2.33;;;;;;;;;;5326085;26;20048;-70
2024/04/11 00:16:57;;;;;;;8.15;3.10;;;;;;;;;;5331984;26;20394;-70
2024/04/11 00:19:23;;;;;;;5.88;2.63;;;;;;;;;;5323398;26;20600;-70
2024/04/11 00:21:49;;;;;;;4.10;2.70;;;;;;;;;;5332110;26;20021;-70
2024/04/11 00:24:16;;;;;;;5.60;2.90;;;;;;;;;;5331446;26;20074;-70
2024/04/11 00:26:42;;;;;;;5.32;3.30;;;;;;;;;;5326637;26;20614;-70
2024/04/11 00:29:10;;;;;;;3.85;2.42;;;;;;;;;;5331903;26;20001;-70
2024/04/11 00:31:36;;;;;;;5.70;3.10;;;;;;;;;;5326276;26;20139;-70
2024/04/11 00:34:23;;;;;;;5.80;2.50;;;;;;;;;;5324109;26;20029;-70
2024/04/11 00:36:50;;;;;;;5.30;2.80;;;;;;;;;;5325326;26;20016;-70
2024/04/11 00:39:20;;;;;;;5.80;2.65;;;;;;;;;;5328436;26;20333;-70
2024/04/11 00:41:46;;;;;;;6.53;2.80;;;;;;;;;;5324685;26;19997;-69
2024/04/11 00:44:12;;;;;;;4.25;2.65;;;;;;;;;;5322650;26;20106;-70
2024/04/11 00:46:39;;;;;;;4.15;2.40;;;;;;;;;;5329925;26;20047;-70
2024/04/11 00:49:06;;;;;;;5.32;2.83;;;;;;;;;;5334166;26;20436;-70
2024/04/11 00:51:31;;;;;;;4.55;2.67;;;;;;;;;;5323740;26;20019;-70
2024/04/11 00:53:58;;;;;;;3.90;2.25;;;;;;;;;;5335785;26;20012;-70
2024/04/11 00:56:24;;;;;;;5.55;2.83;;;;;;;;;;5334100;26;20410;-70
2024/04/11 00:58:51;;;;;;;4.75;2.50;;;;;;;;;;5330749;26;20566;-70
2024/04/11 01:01:17;;;;;;;4.78;2.47;;;;;;;;;;5333609;26;19997;-70
2024/04/11 01:03:44;;;;;;;4.45;2.25;;;;;;;;;;5333940;26;19992;-70
2024/04/11 01:06:10;;;;;;;3.92;2.38;;;;;;;;;;5332856;26;20029;-70
2024/04/11 01:08:36;;;;;;;6.60;3.20;;;;;;;;;;5332400;26;20001;-70
2024/04/11 01:11:03;;;;;;;5.55;2.13;;;;;;;;;;5323615;26;20013;-70
2024/04/11 01:13:29;;;;;;;3.20;2.35;;;;;;;;;;5330537;26;20417;-70
2024/04/11 01:15:57;;;;;;;3.35;2.08;;;;;;;;;;5326371;26;20071;-70
2024/04/11 01:18:25;;;;;;;3.55;2.25;;;;;;;;;;5319209;26;20017;-70
2024/04/11 01:20:51;;;;;;;3.78;1.95;;;;;;;;;;5335445;26;20394;-70
2024/04/11 01:23:17;;;;;;;5.78;2.90;;;;;;;;;;5324159;26;20436;-70
2024/04/11 01:25:43;;;;;;;5.15;2.15;;;;;;;;;;5331849;26;19998;-70
2024/04/11 01:28:09;;;;;;;3.63;2.05;;;;;;;;;;5333176;26;19997;-70
2024/04/11 01:30:35;;;;;;;3.50;2.35;;;;;;;;;;5331339;26;20009;-70
2024/04/11 01:33:01;;;;;;;3.58;2.03;;;;;;;;;;5337237;26;20001;-70
2024/04/11 01:35:30;;;;;;;4.38;1.85;;;;;;;;;;5317737;26;20013;-70
2024/04/11 01:37:57;;;;;;;4.90;2.55;;;;;;;;;;5330682;26;20557;-70
2024/04/11 01:40:23;;;;;;;2.58;1.67;;;;;;;;;;5330716;26;20009;-70
2024/04/11 01:42:49;;;;;;;3.70;2.00;;;;;;;;;;5319006;26;20528;-71
2024/04/11 01:45:15;;;;;;;4.32;2.30;;;;;;;;;;5323427;26;20001;-70
2024/04/11 01:47:42;;;;;;;4.32;2.10;;;;;;;;;;5335313;26;20016;-70
2024/04/11 01:50:07;;;;;;;4.82;2.08;;;;;;;;;;5333011;26;20506;-71
2024/04/11 01:52:33;;;;;;;4.60;2.10;;;;;;;;;;5332834;26;20020;-70
2024/04/11 01:55:00;;;;;;;3.38;2.10;;;;;;;;;;5324536;26;20001;-70
2024/04/11 01:57:27;;;;;;;2.63;1.63;;;;;;;;;;5331681;26;20692;-70
2024/04/11 01:59:53;;;;;;;3.47;1.65;;;;;;;;;;5330933;26;20076;-70
2024/04/11 02:02:19;;;;;;;5.18;2.25;;;;;;;;;;5323836;26;20009;-70
2024/04/11 02:04:45;;;;;;;3.63;1.80;;;;;;;;;;5314872;26;20013;-70
2024/04/11 02:07:11;;;;;;;5.75;1.90;;;;;;;;;;5329819;26;20148;-70
2024/04/11 02:09:37;;;;;;;4.03;2.10;;;;;;;;;;5320165;26;20020;-70
2024/04/11 02:12:03;;;;;;;6.10;1.88;;;;;;;;;;5328344;26;20005;-69
2024/04/11 02:14:29;;;;;;;2.67;1.48;;;;;;;;;;5328529;26;20018;-70
2024/04/11 02:16:56;;;;;;;2.95;1.85;;;;;;;;;;5330538;26;20279;-70
2024/04/11 02:19:21;;;;;;;2.92;1.77;;;;;;;;;;5326580;26;20000;-70
2024/04/11 02:21:48;;;;;;;4.28;1.85;;;;;;;;;;5334378;26;20295;-70
2024/04/11 02:24:17;;;;;;;4.93;1.45;;;;;;;;;;5326291;26;20008;-70
2024/04/11 02:26:48;;;;;;;2.40;1.30;;;;;;;;;;5330944;26;20016;-71
2024/04/11 02:29:14;;;;;;;3.00;1.60;;;;;;;;;;5328843;26;20052;-70
2024/04/11 02:31:41;;;;;;;2.67;1.48;;;;;;;;;;5325190;26;20015;-70
2024/04/11 02:34:07;;;;;;;1.92;1.48;;;;;;;;;;5328718;26;20024;-70
2024/04/11 02:36:34;;;;;;;3.38;1.30;;;;;;;;;;5327591;26;20348;-70
2024/04/11 02:39:01;;;;;;;3.38;1.48;;;;;;;;;;5330468;26;20178;-70
2024/04/11 02:41:30;;;;;;;2.80;1.40;;;;;;;;;;5331656;26;20072;-70
2024/04/11 02:43:56;;;;;;;2.53;1.35;;;;;;;;;;5331168;26;20012;-70
2024/04/11 02:46:22;;;;;;;3.28;1.40;;;;;;;;;;5336198;26;20016;-71
2024/04/11 02:48:48;;;;;;;2.25;1.33;;;;;;;;;;5330845;26;20478;-70
2024/04/11 02:51:15;;;;;;;2.67;1.17;;;;;;;;;;5335853;26;20021;-70
2024/04/11 02:53:42;;;;;;;1.98;1.20;;;;;;;;;;5328697;26;20383;-70
2024/04/11 02:56:09;;;;;;;2.17;1.17;;;;;;;;;;5333325;26;20017;-70
2024/04/11 02:58:35;;;;;;;3.80;1.48;;;;;;;;;;5333023;26;20004;-70
2024/04/11 03:01:01;;;;;;;2.75;1.38;;;;;;;;;;5333139;26;20080;-70
2024/04/11 03:03:27;;;;;;;1.65;1.20;;;;;;;;;;5330870;26;20040;-71
2024/04/11 03:05:54;;;;;;;2.30;1.30;;;;;;;;;;5334550;26;19997;-70
2024/04/11 03:08:20;;;;;;;2.22;1.23;;;;;;;;;;5329614;26;20029;-70
2024/04/11 03:10:46;;;;;;;1.80;1.23;;;;;;;;;;5325323;26;20017;-70
2024/04/11 03:13:12;;;;;;;3.45;1.00;;;;;;;;;;5333283;26;20005;-70
2024/04/11 03:15:40;;;;;;;3.72;1.23;;;;;;;;;;5325976;26;20150;-70
2024/04/11 03:18:06;;;;;;;2.65;1.25;;;;;;;;;;5318779;26;20011;-70
2024/04/11 03:20:32;;;;;;;2.70;0.85;;;;;;;;;;5333931;26;20298;-71
2024/04/11 03:22:57;;;;;;;2.95;1.25;;;;;;;;;;5335593;26;20348;-71
2024/04/11 03:25:24;;;;;;;7.43;1.10;;;;;;;;;;5329094;26;20001;-70
2024/04/11 03:27:50;;;;;;;2.38;1.10;;;;;;;;;;5320482;26;20507;-70
2024/04/11 03:30:15;;;;;;;2.20;1.50;;;;;;;;;;5327643;26;20047;-70
2024/04/11 03:32:41;;;;;;;1.95;0.93;;;;;;;;;;5325907;26;20349;-70
2024/04/11 03:35:08;;;;;;;1.23;0.93;;;;;;;;;;5323012;26;20414;-70
2024/04/11 03:37:34;;;;;;;2.78;1.00;;;;;;;;;;5331703;26;20426;-70
2024/04/11 03:40:03;;;;;;;1.63;1.10;;;;;;;;;;5325940;26;20555;-70
2024/04/11 03:42:29;;;;;;;3.08;0.90;;;;;;;;;;5331033;26;20076;-71
2024/04/11 03:45:10;;;;;;;3.55;0.93;;;;;;;;;;5332330;26;19997;-71
2024/04/11 03:47:37;;;;;;;;;;;;;;;;;;5326874;26;20015;-70
2024/04/11 03:50:05;;;;;;;3.28;1.40;;;;;;;;;;5323634;26;19945;-70
2024/04/11 03:52:31;;;;;;;2.22;1.10;;;;;;;;;;5321180;26;20341;-71
2024/04/11 03:54:57;;;;;;;3.03;0.80;;;;;;;;;;5329817;26;20011;-70
2024/04/11 03:57:23;;;;;;;0.80;0.80;;;;;;;;;;5330842;26;19997;-70
2024/04/11 03:59:52;;;;;;;1.45;0.85;;;;;;;;;;5331403;26;20001;-70
2024/04/11 04:02:17;;;;;;;4.75;1.35;;;;;;;;;;5328812;26;20008;-70
2024/04/11 04:04:44;;;;;;;1.88;0.80;;;;;;;;;;5327621;26;20136;-70
2024/04/11 04:07:09;;;;;;;1.35;0.75;;;;;;;;;;5331685;26;20087;-70
2024/04/11 04:09:36;;;;;;;2.30;1.45;;;;;;;;;;5329705;26;20053;-70
2024/04/11 04:12:02;;;;;;;1.85;1.13;;;;;;;;;;5324784;26;20001;-70
2024/04/11 04:14:28;;;;;;;2.40;1.10;;;;;;;;;;5319256;26;20036;-70
2024/04/11 04:16:54;;;;;;;1.63;1.10;;;;;;;;;;5333127;26;20063;-70
2024/04/11 04:19:21;;;;;;;2.22;1.00;;;;;;;;;;5329194;26;20010;-71
2024/04/11 04:21:48;;;;;;;2.35;1.00;;;;;;;;;;5325952;26;20031;-70
2024/04/11 04:24:14;;;;;;;2.90;0.98;;;;;;;;;;5341927;26;20021;-71
2024/04/11 04:26:40;;;;;;;2.33;1.10;;;;;;;;;;5327813;26;20424;-70
2024/04/11 04:29:06;;;;;;;2.20;1.13;;;;;;;;;;5330564;26;20021;-67
2024/04/11 04:31:33;;;;;;;0.82;0.70;;;;;;;;;;5331011;26;20007;-68
2024/04/11 04:34:00;;;;;;;1.65;1.00;;;;;;;;;;5334937;26;20030;-67
2024/04/11 04:36:26;;;;;;;2.05;0.90;;;;;;;;;;5328198;26;20085;-67
2024/04/11 04:38:53;;;;;;;4.07;1.15;;;;;;;;;;5328297;26;20511;-67
2024/04/11 04:41:25;;;;;;;3.92;1.30;;;;;;;;;;5328932;26;20015;-67
2024/04/11 04:43:54;;;;;;;2.67;1.30;;;;;;;;;;5324591;26;19997;-68
2024/04/11 04:46:24;;;;;;;1.65;0.93;;;;;;;;;;5334426;26;20092;-68
2024/04/11 04:48:52;;;;;;;2.45;1.20;;;;;;;;;;5331599;26;20410;-67
2024/04/11 04:51:18;;;;;;;2.58;1.20;;;;;;;;;;5324547;26;20002;-67
2024/04/11 04:53:44;;;;;;;5.47;1.80;;;;;;;;;;5332254;26;20035;-67
2024/04/11 04:56:12;;;;;;;4.95;1.73;;;;;;;;;;5325156;26;20008;-67
2024/04/11 04:58:38;;;;;;;3.35;1.55;;;;;;;;;;5334798;26;20020;-67
2024/04/11 05:01:04;;;;;;;4.25;1.55;;;;;;;;;;5333351;26;20058;-67
2024/04/11 05:03:33;;;;;;;3.60;1.67;;;;;;;;;;5332029;26;20033;-68
2024/04/11 05:06:02;;;;;;;7.60;2.65;;;;;;;;;;5328499;26;20015;-67
2024/04/11 05:08:32;;;;;;;6.68;2.22;;;;;;;;;;5329063;26;20004;-67
2024/04/11 05:10:57;;;;;;;5.82;2.10;;;;;;;;;;5323785;26;20284;-68
2024/04/11 05:13:26;;;;;;;6.80;2.40;;;;;;;;;;5315447;26;20018;-67
2024/04/11 05:15:56;;;;;;;6.43;2.30;;;;;;;;;;5337126;26;20029;-66
2024/04/11 05:18:22;;;;;;;5.30;2.42;;;;;;;;;;5337820;26;20336;-67
2024/04/11 05:20:48;;;;;;;5.82;2.40;;;;;;;;;;5337289;26;20000;-67
2024/04/11 05:23:14;;;;;;;9.85;2.75;;;;;;;;;;5326557;26;20052;-68
2024/04/11 05:25:43;;;;;;;4.38;2.00;;;;;;;;;;5340645;26;20035;-66
2024/04/11 05:28:09;;;;;;;4.97;2.08;;;;;;;;;;5335881;26;20016;-67
2024/04/11 05:30:38;;;;;;;4.88;2.03;;;;;;;;;;5331660;26;20096;-67
2024/04/11 05:33:04;;;;;;;5.38;1.88;;;;;;;;;;5333152;26;20013;-67
2024/04/11 05:35:30;;;;;;;6.35;2.05;;;;;;;;;;5323634;26;20361;-67
2024/04/11 05:37:56;;;;;;;7.22;2.17;;;;;;;;;;5329945;26;20012;-67
2024/04/11 05:40:22;;;;;;;3.75;1.48;;;;;;;;;;5328715;26;20389;-68
2024/04/11 05:42:49;;;;;;;2.63;1.30;;;;;;;;;;5322323;26;20095;-67
2024/04/11 05:45:17;;;;;;;5.10;1.33;;;;;;;;;;5336499;26;20012;-67
2024/04/11 05:47:43;;;;;;;5.13;1.52;;;;;;;;;;5326108;26;20074;-68
2024/04/11 05:50:09;;;;;;;2.90;1.23;;;;;;;;;;5331468;26;20064;-67
2024/04/11 05:52:35;;;;;;;2.38;1.30;;;;;;;;;;5329196;26;22755;-74
2024/04/11 05:55:02;;;;;;;3.05;1.13;;;;;;;;;;5333304;26;20101;-66
2024/04/11 05:57:28;;;;;;;2.50;1.15;;;;;;;;;;5329368;26;20015;-66
2024/04/11 05:59:55;;;;;;;2.45;1.08;;;;;;;;;;5334576;26;20014;-66
2024/04/11 06:02:21;;;;;;;1.17;0.80;;;;;;;;;;5333053;26;20466;-67
2024/04/11 06:04:47;;;;;;;1.73;1.10;;;;;;;;;;5337480;26;20001;-66
2024/04/11 06:07:14;;;;;;;2.20;1.08;;;;;;;;;;5337121;26;20070;-68
2024/04/11 06:09:40;;;;;;;1.77;0.80;;;;;;;;;;5334834;26;19997;-67
2024/04/11 06:12:10;;;;;;;2.13;1.50;;;;;;;;;;5335267;26;20120;-66
2024/04/11 06:14:36;;;;;;;0.93;0.68;;;;;;;;;;5334557;26;20098;-65
2024/04/11 06:17:02;;;;;;;4.10;1.10;;;;;;;;;;5333212;26;20001;-66
2024/04/11 06:19:29;;;;;;;3.80;0.98;;;;;;;;;;5336945;26;19997;-66
2024/04/11 06:21:55;;;;;;;1.27;0.95;;;;;;;;;;5324476;26;20398;-67
2024/04/11 06:24:21;;;;;;;2.50;0.90;;;;;;;;;;5348765;26;20200;-67
2024/04/11 06:26:47;;;;;;;1.38;0.85;;;;;;;;;;5332631;26;20013;-66
2024/04/11 06:29:19;;;;;;;1.08;0.90;;;;;;;;;;5334905;26;19997;-67
2024/04/11 06:31:46;;;;;;;2.60;0.80;;;;;;;;;;5334587;26;20412;-66
2024/04/11 06:34:13;;;;;;;2.22;0.95;;;;;;;;;;5328879;26;20012;-66
2024/04/11 06:36:39;;;;;;;3.50;1.00;;;;;;;;;;5333631;26;20008;-66
2024/04/11 06:39:09;;;;;;;1.58;0.80;;;;;;;;;;5335320;26;20377;-66
2024/04/11 06:41:36;;;;;;;0.95;0.63;;;;;;;;;;5323654;26;20001;-66
2024/04/11 06:44:03;;;;;;;3.67;0.90;;;;;;;;;;5331903;26;20084;-67
2024/04/11 06:46:29;;;;;;;1.85;0.93;;;;;;;;;;5331537;26;20005;-65
2024/04/11 06:48:57;;;;;;;1.63;0.90;;;;;;;;;;5337344;26;20001;-65
2024/04/11 06:51:25;;;;;;;1.15;0.80;;;;;;;;;;5332461;26;20082;-66
2024/04/11 06:53:52;;;;;;;1.63;0.80;;;;;;;;;;5333608;26;20031;-66
2024/04/11 06:56:22;;;;;;;5.47;0.90;;;;;;;;;;5334899;26;20009;-66
2024/04/11 06:58:48;;;;;;;3.17;1.13;;;;;;;;;;5312595;26;20249;-65
2024/04/11 07:01:15;;;;;;;2.20;0.88;;;;;;;;;;5330648;26;20079;-66
2024/04/11 07:03:49;;;;;;;1.55;0.90;;;;;;;;;;5331313;26;20004;-66
2024/04/11 07:06:22;;;;;;;3.30;1.10;;;;;;;;;;5328945;26;20025;-66
2024/04/11 07:08:54;;;;;;;2.45;1.02;;;;;;;;;;5316335;26;20016;-65
2024/04/11 07:11:27;;;;;;;1.45;0.80;;;;;;;;;;5332390;26;20001;-66
2024/04/11 07:13:56;;;;;;;2.85;0.77;;;;;;;;;;5320075;26;20017;-65
2024/04/11 07:16:26;;;;;;;1.20;0.80;;;;;;;;;;5332692;26;20051;-65
2024/04/11 07:18:55;;;;;;;1.60;0.85;;;;;;;;;;5329504;26;20444;-65
2024/04/11 07:21:25;;;;;;;1.02;0.80;;;;;;;;;;5335572;26;20091;-66
2024/04/11 07:23:54;;;;;;;2.88;1.35;;;;;;;;;;5341621;26;20001;-66
2024/04/11 07:26:22;;;;;;;1.77;0.90;;;;;;;;;;5334825;26;20290;-66
2024/04/11 07:28:48;;;;;;;1.50;0.75;;;;;;;;;;5316548;26;20056;-65
2024/04/11 07:31:16;;;;;;;1.08;0.80;;;;;;;;;;5330085;26;20000;-66
2024/04/11 07:33:43;;;;;;;1.05;0.82;;;;;;;;;;5327938;26;20006;-65
2024/04/11 07:36:13;;;;;;;3.67;1.42;;;;;;;;;;5325575;26;20008;-66
2024/04/11 07:38:40;;;;;;;4.50;1.25;;;;;;;;;;5333571;26;20015;-66
2024/04/11 07:41:19;;;;;;;0.93;0.75;;;;;;;;;;5334130;26;20012;-66
2024/04/11 07:43:51;;;;;;;2.58;1.13;;;;;;;;;;5331514;26;20036;-66
2024/04/11 07:46:18;;;;;;;2.50;1.27;;;;;;;;;;5335812;26;20001;-66
2024/04/11 07:48:47;;;;;;;1.75;1.05;;;;;;;;;;5335417;26;20013;-66
2024/04/11 07:51:13;;;;;;;1.40;0.98;;;;;;;;;;5329177;26;20112;-66
2024/04/11 07:53:41;;;;;;;1.52;1.00;;;;;;;;;;5333240;26;20004;-66
2024/04/11 07:56:09;;;;;;;3.30;1.35;;;;;;;;;;5327363;26;20348;-67
2024/04/11 07:58:35;;;;;;;1.70;1.00;;;;;;;;;;5326332;26;20054;-66
2024/04/11 08:01:02;;;;;;;1.20;0.82;;;;;;;;;;5332646;26;20001;-67
2024/04/11 08:03:27;;;;;;;2.60;1.33;;;;;;;;;;5335562;26;20457;-66
2024/04/11 08:05:54;;;;;;;2.70;1.27;;;;;;;;;;5315137;26;20016;-66
2024/04/11 08:08:20;;;;;;;1.15;0.93;;;;;;;;;;5319372;26;20074;-66
2024/04/11 08:10:50;;;;;;;3.33;1.77;;;;;;;;;;5330010;26;20128;-66
2024/04/11 08:13:22;;;;;;;3.03;1.50;;;;;;;;;;5323512;26;20311;-66
2024/04/11 08:15:49;;;;;;;2.67;1.42;;;;;;;;;;5325691;26;20036;-66
2024/04/11 08:18:15;;;;;;;3.88;1.33;;;;;;;;;;5329541;26;20034;-66
2024/04/11 08:20:41;;;;;;;1.67;1.02;;;;;;;;;;5335176;26;20028;-66
2024/04/11 08:23:08;;;;;;;4.57;1.90;;;;;;;;;;5335575;26;19997;-66
2024/04/11 08:25:34;;;;;;;2.30;1.05;;;;;;;;;;5334354;26;20424;-67
2024/04/11 08:28:02;;;;;;;2.17;1.23;;;;;;;;;;5324012;26;20419;-66
2024/04/11 08:30:29;;;;;;;1.52;1.00;;;;;;;;;;5333891;26;20349;-66
2024/04/11 08:32:58;;;;;;;2.28;1.05;;;;;;;;;;5335051;26;20004;-66
2024/04/11 08:35:24;;;;;;;2.50;1.65;;;;;;;;;;5327016;26;20083;-67
2024/04/11 08:37:53;;;;;;;5.53;1.58;;;;;;;;;;5327364;26;20048;-67
2024/04/11 08:40:19;;;;;;;4.18;1.38;;;;;;;;;;5330463;26;20003;-66
2024/04/11 08:42:45;;;;;;;1.73;1.10;;;;;;;;;;5323376;26;19998;-69
2024/04/11 08:45:12;;;;;;;1.27;0.82;;;;;;;;;;5320544;26;20404;-68
2024/04/11 08:47:39;;;;;;;3.17;1.55;;;;;;;;;;5319708;26;20005;-68
2024/04/11 08:50:05;;;;;;;2.60;1.17;;;;;;;;;;5321729;26;21107;-68
2024/04/11 08:52:32;;;;;;;5.15;1.25;;;;;;;;;;5322951;26;20410;-68
2024/04/11 08:54:58;;;;;;;3.40;1.23;;;;;;;;;;5332286;26;20001;-68
2024/04/11 08:57:27;;;;;;;2.70;1.20;;;;;;;;;;5321227;26;20001;-68
2024/04/11 08:59:54;;;;;;;1.45;1.05;;;;;;;;;;5321906;26;20008;-68
2024/04/11 09:02:20;;;;;;;5.38;1.63;;;;;;;;;;5329399;26;19998;-67
2024/04/11 09:04:46;;;;;;;2.08;1.17;;;;;;;;;;5333818;26;20421;-67
2024/04/11 09:07:21;;;;;;;2.60;1.40;;;;;;;;;;5334831;26;20005;-68
2024/04/11 09:09:48;;;;;;;4.72;2.03;;;;;;;;;;5329732;26;19997;-67
2024/04/11 09:12:16;;;;;;;2.67;1.23;;;;;;;;;;5329278;26;20108;-68
2024/04/11 09:14:43;;;;;;;1.55;1.17;;;;;;;;;;5334973;26;20086;-68
2024/04/11 09:17:13;;;;;;;1.73;0.93;;;;;;;;;;5337787;26;20001;-67
2024/04/11 09:19:40;;;;;;;3.85;1.05;;;;;;;;;;5336329;26;20005;-67
2024/04/11 09:22:16;;;;;;;1.92;0.82;;;;;;;;;;5330706;26;20045;-68
2024/04/11 09:24:46;;;;;;;1.85;0.85;;;;;;;;;;5335193;26;20030;-67
2024/04/11 09:27:16;;;;;;;1.65;0.95;;;;;;;;;;5328538;26;20299;-69
2024/04/11 09:29:42;;;;;;;2.63;1.08;;;;;;;;;;5336237;26;20469;-67
2024/04/11 09:32:11;;;;;;;2.95;0.90;;;;;;;;;;5331089;26;20007;-67
2024/04/11 09:34:38;;;;;;;3.80;1.15;;;;;;;;;;5324398;26;20004;-67
2024/04/11 09:37:09;;;;;;;4.28;1.50;;;;;;;;;;5338273;26;20082;-67
2024/04/11 09:39:45;;;;;;;1.60;0.93;;;;;;;;;;5320389;26;20001;-68
2024/04/11 09:42:11;;;;;;;2.92;1.40;;;;;;;;;;5328530;26;20455;-68
2024/04/11 09:44:44;;;;;;;1.73;1.17;;;;;;;;;;5332813;26;20379;-68
2024/04/11 09:47:10;;;;;;;2.00;1.10;;;;;;;;;;5337176;26;20001;-68
2024/04/11 09:49:38;;;;;;;1.50;0.82;;;;;;;;;;5338100;26;20405;-68
2024/04/11 09:52:07;;;;;;;2.28;1.27;;;;;;;;;;5332576;26;20123;-68
2024/04/11 09:54:38;;;;;;;2.75;1.45;;;;;;;;;;5334749;26;20443;-68
2024/04/11 09:57:04;;;;;;;4.88;1.33;;;;;;;;;;5329347;26;20090;-68
2024/04/11 09:59:30;;;;;;;1.77;1.10;;;;;;;;;;5326334;26;20488;-68
2024/04/11 10:01:59;;;;;;;2.95;1.08;;;;;;;;;;5335478;26;20078;-68
2024/04/11 10:04:35;;;;;;;3.50;1.00;;;;;;;;;;5330094;26;20006;-68
2024/04/11 10:07:08;;;;;;;3.72;1.38;;;;;;;;;;5337035;26;20001;-68
2024/04/11 10:09:34;;;;;;;3.58;1.20;;;;;;;;;;5331297;26;20012;-68
2024/04/11 10:12:01;;;;;;;1.95;1.00;;;;;;;;;;5325745;26;20005;-69
2024/04/11 10:14:31;;;;;;;2.28;0.95;;;;;;;;;;5328586;26;20417;-68
2024/04/11 10:17:01;;;;;;;1.98;1.05;;;;;;;;;;5336843;26;20082;-70
2024/04/11 10:19:27;;;;;;;2.55;1.08;;;;;;;;;;5333712;26;20479;-69
2024/04/11 10:22:00;;;;;;;2.42;1.60;;;;;;;;;;5327889;26;20073;-68
2024/04/11 10:24:31;;;;;;;2.10;1.13;;;;;;;;;;5339288;26;20486;-69
2024/04/11 10:26:57;;;;;;;;;;;;;;;;;;5321513;26;20080;-68
2024/04/11 10:29:26;;;;;;;2.20;0.90;;;;;;;;;;5334723;26;19999;-69
2024/04/11 10:31:56;;;;;;;2.47;0.93;;;;;;;;;;5335216;26;20001;-69
2024/04/11 10:34:34;;;;;;;3.10;1.58;;;;;;;;;;5330629;26;20014;-69
2024/04/11 10:37:03;;;;;;;2.55;1.38;;;;;;;;;;5323718;26;20001;-69
2024/04/11 10:39:35;;;;;;;4.50;1.67;;;;;;;;;;5329062;26;20029;-68
2024/04/11 10:42:02;;;;;;;4.20;1.27;;;;;;;;;;5317380;26;20112;-69
2024/04/11 10:44:28;;;;;;;3.47;1.48;;;;;;;;;;5316952;26;20000;-68
2024/04/11 10:46:55;;;;;;;3.75;1.75;;;;;;;;;;5324674;26;20037;-68
2024/04/11 10:49:28;;;;;;;2.88;1.27;;;;;;;;;;5315856;26;20140;-69
2024/04/11 10:51:58;;;;;;;4.80;1.63;;;;;;;;;;5330340;26;20001;-68
2024/04/11 10:54:26;;;;;;;5.50;1.48;;;;;;;;;;5335724;26;20007;-68
2024/04/11 10:56:54;;;;;;;2.75;1.00;;;;;;;;;;5321026;26;20009;-72
2024/04/11 10:59:26;;;;;;;3.05;1.40;;;;;;;;;;5329424;26;20001;-72
2024/04/11 11:02:02;;;;;;;4.75;1.40;;;;;;;;;;5311944;26;20033;-70
2024/04/11 11:04:30;;;;;;;3.08;1.83;;;;;;;;;;5319699;26;20461;-71
2024/04/11 11:06:59;;;;;;;3.00;1.30;;;;;;;;;;5326774;26;20035;-70
2024/04/11 11:09:27;;;;;;;1.65;0.95;;;;;;;;;;5330193;26;20142;-70
2024/04/11 11:12:00;;;;;;;1.75;1.00;;;;;;;;;;5329988;26;20345;-69
2024/04/11 11:14:28;;;;;;;4.55;1.67;;;;;;;;;;5328924;26;20012;-71
2024/04/11 11:17:01;;;;;;;4.53;1.55;;;;;;;;;;5313124;26;20010;-70
2024/04/11 11:19:30;;;;;;;4.13;1.60;;;;;;;;;;5325479;26;20016;-72
2024/04/11 11:21:59;;;;;;;2.28;1.15;;;;;;;;;;5334409;26;20012;-70
2024/04/11 11:24:26;;;;;;;3.22;1.60;;;;;;;;;;5330885;26;20282;-71
2024/04/11 11:26:58;;;;;;;3.03;1.42;;;;;;;;;;5335754;26;20418;-71
2024/04/11 11:29:28;;;;;;;3.60;1.38;;;;;;;;;;5324938;26;20575;-72
2024/04/11 11:32:01;;;;;;;2.95;1.35;;;;;;;;;;5325962;26;20001;-71
2024/04/11 11:34:29;;;;;;;2.65;1.23;;;;;;;;;;5336205;26;20028;-70
2024/04/11 11:36:59;;;;;;;2.30;1.30;;;;;;;;;;5322960;26;20143;-71
2024/04/11 11:39:25;;;;;;;3.97;1.50;;;;;;;;;;5332547;26;20039;-71
2024/04/11 11:42:19;;;;;;;1.77;1.30;;;;;;;;;;5317699;26;20054;-70
2024/04/11 11:47:33;;;;;;;2.90;1.23;;;;;;;;;;5334077;26;20413;-71
2024/04/11 11:50:09;;;;;;;3.42;1.35;;;;;;;;;;5323908;26;20094;-71
2024/04/11 11:52:36;;;;;;;3.28;1.50;;;;;;;;;;5327938;26;20057;-71
2024/04/11 11:55:03;;;;;;;2.60;1.45;;;;;;;;;;5335045;26;20095;-71
2024/04/11 11:57:39;;;;;;;2.15;1.17;;;;;;;;;;5333458;26;20016;-71
2024/04/11 12:00:18;;;;;;;2.03;1.10;;;;;;;;;;5325500;26;20001;-72
2024/04/11 12:02:44;;;;;;;4.25;1.42;;;;;;;;;;5332720;26;20032;-71
2024/04/11 12:05:14;;;;;;;1.70;1.15;;;;;;;;;;5335365;26;20483;-71
2024/04/11 12:07:43;;;;;;;4.57;1.70;;;;;;;;;;5330835;26;20474;-71
2024/04/11 12:10:15;;;;;;;2.08;1.45;;;;;;;;;;5321975;26;20100;-71
2024/04/11 12:12:43;;;;;;;3.10;1.30;;;;;;;;;;5326756;26;20390;-71
2024/04/11 12:15:14;;;;;;;2.10;1.17;;;;;;;;;;5333072;26;20001;-69
2024/04/11 12:17:40;;;;;;;3.25;1.45;;;;;;;;;;5331296;26;20016;-69
2024/04/11 12:20:06;;;;;;;3.30;1.30;;;;;;;;;;5326993;26;20302;-68
2024/04/11 12:22:33;;;;;;;2.70;1.30;;;;;;;;;;5326677;26;20095;-69
2024/04/11 12:25:01;;;;;;;2.90;1.48;;;;;;;;;;5330669;26;20008;-69
2024/04/11 12:27:28;;;;;;;3.15;1.27;;;;;;;;;;5321051;26;20092;-68
2024/04/11 12:29:58;;;;;;;2.60;1.40;;;;;;;;;;5322798;26;20424;-68
2024/04/11 12:32:25;;;;;;;3.47;1.33;;;;;;;;;;5331484;26;19997;-69
2024/04/11 12:34:55;;;;;;;3.13;1.48;;;;;;;;;;5324547;26;20036;-68
2024/04/11 12:37:24;;;;;;;1.88;1.13;;;;;;;;;;5322240;26;20044;-70
2024/04/11 12:39:56;;;;;;;3.03;1.30;;;;;;;;;;5327572;26;20001;-72
2024/04/11 12:42:29;;;;;;;2.60;1.33;;;;;;;;;;5322390;26;20064;-72
2024/04/11 12:44:58;;;;;;;3.28;1.77;;;;;;;;;;5325134;26;20481;-68
2024/04/11 12:47:39;;;;;;;2.80;1.33;;;;;;;;;;5332939;26;20016;-68
2024/04/11 12:50:12;;;;;;;2.45;1.85;;;;;;;;;;5324200;26;20042;-69
2024/04/11 12:52:44;;;;;;;2.58;1.60;;;;;;;;;;5321689;26;20089;-70
2024/04/11 12:55:10;;;;;;;5.03;1.70;;;;;;;;;;5325271;26;20392;-69
2024/04/11 12:57:37;;;;;;;4.45;1.80;;;;;;;;;;5322742;26;20697;-70
2024/04/11 13:00:34;;;;;;;2.70;1.70;;;;;;;;;;5326261;26;20282;-70
2024/04/11 13:03:06;;;;;;;3.40;1.55;;;;;;;;;;5335573;26;20033;-70
2024/04/11 13:05:40;;;;;;;2.83;1.42;;;;;;;;;;5325376;26;20012;-70
2024/04/11 13:08:07;;;;;;;3.17;1.60;;;;;;;;;;5325647;26;20005;-70
2024/04/11 13:10:34;;;;;;;3.53;1.63;;;;;;;;;;5328538;26;20002;-70
2024/04/11 13:13:02;;;;;;;3.33;1.65;;;;;;;;;;5333989;26;20015;-69
2024/04/11 13:15:43;;;;;;;2.33;1.60;;;;;;;;;;5328921;26;19997;-69
2024/04/11 13:18:11;;;;;;;4.57;1.90;;;;;;;;;;5322662;26;20009;-69
2024/04/11 13:20:37;;;;;;;5.60;1.65;;;;;;;;;;5333820;26;20001;-70
2024/04/11 13:23:10;;;;;;;4.45;1.90;;;;;;;;;;5341096;26;20008;-69
2024/04/11 13:25:39;;;;;;;3.40;1.90;;;;;;;;;;5329937;26;20424;-73
2024/04/11 13:28:05;;;;;;;2.53;1.70;;;;;;;;;;5325362;26;19997;-71
2024/04/11 13:30:31;;;;;;;5.07;1.65;;;;;;;;;;5325009;26;20311;-71
2024/04/11 13:33:03;;;;;;;3.88;2.10;;;;;;;;;;5329784;26;20001;-69
2024/04/11 13:35:37;;;;;;;3.63;1.58;;;;;;;;;;5331508;26;20001;-69
2024/04/11 13:38:13;;;;;;;4.53;1.63;;;;;;;;;;5337681;26;20009;-69
2024/04/11 13:43:09;;;;;;;3.03;1.77;;;;;;;;;;5333454;26;20001;-70
2024/04/11 13:45:41;;;;;;;3.20;1.77;;;;;;;;;;5336814;26;20440;-69
2024/04/11 13:48:07;;;;;;;5.13;2.10;;;;;;;;;;5337595;26;20047;-70
2024/04/11 13:50:44;;;;;;;5.38;2.03;;;;;;;;;;5333726;26;20016;-70
2024/04/11 13:53:14;;;;;;;3.70;1.80;;;;;;;;;;5337980;26;20001;-70
2024/04/11 13:55:43;;;;;;;4.30;2.20;;;;;;;;;;5321566;26;20001;-70
2024/04/11 13:58:09;;;;;;;3.45;2.08;;;;;;;;;;5332110;26;20008;-70
2024/04/11 14:00:38;;;;;;;5.00;1.80;;;;;;;;;;5327080;26;20025;-69
2024/04/11 14:05:59;;;;;;;3.53;2.00;;;;;;;;;;5336756;26;20011;-69
2024/04/11 14:08:25;;;;;;;3.53;1.80;;;;;;;;;;5330290;26;20001;-70
2024/04/11 14:10:51;;;;;;;4.15;1.80;;;;;;;;;;5325409;26;20399;-70
2024/04/11 14:13:17;;;;;;;4.53;2.08;;;;;;;;;;5323755;26;20040;-71
2024/04/11 14:15:44;;;;;;;5.20;2.40;;;;;;;;;;5324350;26;20076;-69
2024/04/11 14:18:17;;;;;;;3.70;2.60;;;;;;;;;;5309332;26;20121;-72
2024/04/11 14:20:50;;;;;;;4.53;2.30;;;;;;;;;;5324927;26;20309;-70
2024/04/11 14:23:32;;;;;;;3.67;1.88;;;;;;;;;;5335538;26;20151;-70
2024/04/11 14:26:07;;;;;;;3.45;2.03;;;;;;;;;;5331108;26;20035;-69
2024/04/11 14:28:43;;;;;;;6.60;2.33;;;;;;;;;;5333205;26;20083;-69
2024/04/11 14:31:09;;;;;;;4.63;2.38;;;;;;;;;;5328552;26;20298;-69
2024/04/11 14:36:25;;;;;;;4.65;2.25;;;;;;;;;;5332749;26;20045;-69
2024/04/11 14:38:55;;;;;;;3.75;2.22;;;;;;;;;;5331612;26;20564;-69
2024/04/11 14:41:21;;;;;;;7.90;2.97;;;;;;;;;;5331193;26;20032;-70
2024/04/11 14:43:49;;;;;;;4.32;2.13;;;;;;;;;;5337058;26;20075;-69
2024/04/11 14:46:17;;;;;;;6.38;2.05;;;;;;;;;;5335307;26;20378;-69
2024/04/11 14:48:43;;;;;;;3.90;2.30;;;;;;;;;;5329968;26;20012;-69
2024/04/11 14:51:09;;;;;;;4.78;2.20;;;;;;;;;;5323533;26;20001;-69
2024/04/11 14:53:38;;;;;;;6.25;2.53;;;;;;;;;;5331096;26;21130;-70
2024/04/11 14:56:17;;;;;;;4.28;1.98;;;;;;;;;;5331724;26;20372;-69
2024/04/11 14:58:47;;;;;;;6.88;2.88;;;;;;;;;;5332236;26;20007;-69
2024/04/11 15:01:30;;;;;;;4.70;1.92;;;;;;;;;;5323294;26;20018;-70